createdAt,value
2022-10-11T00:02:29.794Z,49.65
2022-10-11T00:05:08.667Z,49.21
2022-10-11T00:07:45.911Z,50.04
2022-10-11T00:10:24.706Z,48.85
2022-10-11T00:13:02.638Z,48.52
2022-10-11T00:15:40.945Z,48.98
2022-10-11T00:18:18.970Z,49.12
2022-10-11T00:21:03.000Z,49.24
2022-10-11T00:23:41.858Z,48.73
2022-10-11T00:26:19.888Z,49.06
2022-10-11T00:28:58.091Z,49.17
2022-10-11T00:31:36.666Z,49.58
2022-10-11T00:34:17.082Z,48.77
2022-10-11T00:36:54.663Z,48.95
2022-10-11T00:39:33.174Z,47.91
2022-10-11T00:42:15.350Z,48.62
2022-10-11T00:44:52.367Z,49.28
2022-10-11T00:47:30.590Z,48.91
2022-10-11T00:50:11.530Z,49.29
2022-10-11T00:52:55.678Z,49.40
2022-10-11T00:55:36.831Z,48.96
2022-10-11T00:58:14.786Z,49.93
2022-10-11T01:00:54.023Z,49.26
2022-10-11T01:03:38.246Z,48.41
2022-10-11T01:06:15.861Z,48.13
2022-10-11T01:08:54.082Z,47.82
2022-10-11T01:11:42.514Z,47.48
2022-10-11T01:14:36.793Z,47.82
2022-10-11T01:17:23.335Z,47.52
2022-10-11T01:20:20.199Z,47.90
2022-10-11T01:23:35.825Z,47.20
2022-10-11T01:26:39.465Z,47.64
2022-10-11T01:29:42.077Z,47.53
2022-10-11T01:32:29.352Z,48.32
2022-10-11T01:35:15.414Z,48.17
2022-10-11T01:38:01.774Z,48.35
2022-10-11T01:40:45.861Z,48.43
2022-10-11T01:43:25.599Z,48.90
2022-10-11T01:46:04.764Z,49.52
2022-10-11T01:48:55.278Z,49.46
2022-10-11T01:51:47.458Z,49.54
2022-10-11T01:54:56.627Z,49.49
2022-10-11T01:57:43.695Z,49.62
2022-10-11T02:00:28.728Z,49.48
2022-10-11T02:03:21.423Z,49.01
2022-10-11T02:06:22.499Z,49.87
2022-10-11T02:09:22.111Z,49.45
2022-10-11T02:12:07.029Z,49.60
2022-10-11T02:14:49.317Z,48.54
2022-10-11T02:17:34.246Z,49.35
2022-10-11T02:20:17.582Z,48.98
2022-10-11T02:23:13.386Z,49.84
2022-10-11T02:25:53.525Z,49.47
2022-10-11T02:28:35.636Z,49.01
2022-10-11T02:31:15.217Z,48.61
2022-10-11T02:34:21.933Z,48.72
2022-10-11T02:37:08.851Z,48.90
2022-10-11T02:39:51.868Z,49.40
2022-10-11T02:42:37.910Z,49.50
2022-10-11T02:50:00.034Z,48.98
2022-10-11T02:52:38.069Z,50.11
2022-10-11T02:55:16.619Z,50.33
2022-10-11T02:57:54.504Z,50.60
2022-10-11T03:00:33.269Z,50.28
2022-10-11T03:03:11.073Z,49.68
2022-10-11T03:05:49.263Z,49.43
2022-10-11T03:08:27.766Z,49.64
2022-10-11T03:11:05.757Z,49.01
2022-10-11T03:13:43.898Z,49.50
2022-10-11T03:16:22.099Z,49.02
2022-10-11T03:19:00.348Z,49.07
2022-10-11T03:21:38.787Z,48.88
2022-10-11T03:24:16.790Z,48.56
2022-10-11T03:26:55.388Z,48.44
2022-10-11T03:29:33.244Z,49.25
2022-10-11T03:32:11.811Z,48.68
2022-10-11T03:34:49.713Z,48.31
2022-10-11T03:37:28.272Z,48.76
2022-10-11T03:40:08.349Z,48.83
2022-10-11T03:42:45.981Z,48.97
2022-10-11T03:45:24.290Z,48.97
2022-10-11T03:48:03.300Z,48.94
2022-10-11T03:50:40.718Z,49.74
2022-10-11T03:53:18.903Z,49.57
2022-10-11T03:55:57.593Z,49.55
2022-10-11T03:58:35.430Z,49.90
2022-10-11T04:01:13.685Z,50.70
2022-10-11T04:03:55.654Z,49.50
2022-10-11T04:06:33.338Z,50.57
2022-10-11T04:09:11.687Z,49.86
2022-10-11T04:11:49.692Z,49.71
2022-10-11T04:14:28.065Z,50.44
2022-10-11T04:17:06.432Z,50.79
2022-10-11T04:19:44.354Z,50.46
2022-10-11T04:22:22.606Z,50.32
2022-10-11T04:25:00.870Z,50.21
2022-10-11T04:27:39.212Z,49.69
2022-10-11T04:30:17.544Z,49.80
2022-10-11T04:32:55.540Z,50.34
2022-10-11T04:35:33.758Z,50.64
2022-10-11T04:38:11.929Z,50.91
2022-10-11T04:40:50.286Z,50.80
2022-10-11T04:43:28.430Z,51.10
2022-10-11T04:46:07.986Z,50.70
2022-10-11T04:48:46.638Z,50.62
2022-10-11T04:51:25.579Z,50.93
2022-10-11T04:54:02.966Z,50.63
2022-10-11T04:56:41.145Z,50.34
2022-10-11T04:59:19.442Z,49.72
2022-10-11T05:01:57.714Z,49.27
2022-10-11T05:04:35.813Z,49.09
2022-10-11T05:07:14.215Z,49.03
2022-10-11T05:09:52.349Z,48.65
2022-10-11T05:12:30.594Z,49.13
2022-10-11T05:15:09.262Z,49.50
2022-10-11T05:17:46.962Z,48.70
2022-10-11T05:20:25.183Z,48.23
2022-10-11T05:23:03.406Z,48.05
2022-10-11T05:25:41.684Z,48.21
2022-10-11T05:28:19.951Z,48.04
2022-10-11T05:30:58.532Z,47.87
2022-10-11T05:33:36.749Z,47.73
2022-10-11T05:36:15.303Z,47.65
2022-10-11T05:38:52.730Z,47.63
2022-10-11T05:41:31.137Z,47.64
2022-10-11T05:44:09.237Z,47.47
2022-10-11T05:46:47.471Z,47.31
2022-10-11T05:49:25.731Z,47.17
2022-10-11T05:52:04.048Z,47.61
2022-10-11T05:54:42.266Z,47.23
2022-10-11T05:57:20.389Z,47.66
2022-10-11T05:59:58.622Z,47.85
2022-10-11T06:02:36.805Z,47.41
2022-10-11T06:05:15.597Z,47.62
2022-10-11T06:07:53.318Z,47.82
2022-10-11T06:10:32.189Z,48.20
2022-10-11T06:13:09.779Z,48.13
2022-10-11T06:16:11.345Z,48.87
2022-10-11T06:19:11.227Z,49.04
2022-10-11T06:22:06.492Z,49.42
2022-10-11T06:25:03.418Z,51.73
2022-10-11T06:27:58.305Z,48.85
2022-10-11T06:30:56.939Z,48.71
2022-10-11T06:33:51.644Z,46.07
2022-10-11T06:36:46.438Z,44.56
2022-10-11T06:39:41.820Z,42.70
2022-10-11T06:42:42.624Z,43.03
2022-10-11T06:45:40.249Z,42.05
2022-10-11T06:48:39.950Z,41.41
2022-10-11T06:51:31.447Z,41.31
2022-10-11T06:54:23.488Z,40.41
2022-10-11T06:57:18.430Z,39.90
2022-10-11T07:00:14.371Z,39.42
2022-10-11T07:03:15.114Z,38.08
2022-10-11T07:06:18.989Z,37.80
2022-10-11T07:09:19.771Z,37.47
2022-10-11T07:12:11.750Z,36.03
2022-10-11T07:15:07.874Z,35.56
2022-10-11T07:18:04.533Z,34.32
2022-10-11T07:21:01.923Z,33.60
2022-10-11T07:24:05.374Z,33.07
2022-10-11T07:26:56.932Z,33.12
2022-10-11T07:30:03.076Z,32.95
2022-10-11T07:32:58.512Z,32.55
2022-10-11T07:35:51.080Z,31.53
2022-10-11T07:38:47.569Z,31.55
2022-10-11T07:41:45.660Z,31.39
2022-10-11T07:44:38.245Z,31.42
2022-10-11T07:47:38.114Z,31.10
2022-10-11T07:50:34.269Z,30.80
2022-10-11T07:53:43.289Z,31.03
2022-10-11T07:56:34.973Z,30.00
2022-10-11T07:59:39.142Z,30.06
2022-10-11T08:02:30.729Z,30.00
2022-10-11T08:05:24.755Z,30.00
2022-10-11T08:08:19.389Z,29.43
2022-10-11T08:11:23.402Z,29.15
2022-10-11T08:14:19.399Z,29.23
2022-10-11T08:17:11.940Z,28.35
2022-10-11T08:20:04.746Z,28.43
2022-10-11T08:23:00.516Z,28.37
2022-10-11T08:25:56.593Z,29.04
2022-10-11T08:28:52.361Z,29.92
2022-10-11T08:31:44.778Z,29.51
2022-10-11T08:34:45.719Z,29.08
2022-10-11T08:37:37.489Z,28.67
2022-10-11T08:40:32.915Z,29.14
2022-10-11T08:43:40.617Z,29.21
2022-10-11T08:46:56.915Z,30.26
2022-10-11T08:50:00.689Z,30.36
2022-10-11T08:53:05.909Z,29.41
2022-10-11T08:55:50.859Z,29.69
2022-10-11T08:59:04.578Z,29.73
2022-10-11T09:02:43.607Z,29.76
2022-10-11T09:05:30.987Z,29.56
2022-10-11T09:08:34.653Z,28.74
2022-10-11T09:11:33.021Z,29.41
2022-10-11T09:14:23.485Z,28.98
2022-10-11T09:17:11.728Z,28.79
2022-10-11T09:19:55.942Z,28.96
2022-10-11T09:22:51.866Z,28.28
2022-10-11T09:25:41.915Z,28.14
2022-10-11T09:28:44.086Z,28.40
2022-10-11T09:31:11.476Z,29.01
2022-10-11T09:33:44.029Z,29.88
2022-10-11T09:39:10.185Z,29.24
2022-10-11T09:42:03.502Z,28.74
2022-10-11T09:44:35.567Z,29.63
2022-10-11T09:47:03.318Z,29.56
2022-10-11T09:49:40.657Z,30.35
2022-10-11T09:52:17.229Z,29.66
2022-10-11T09:54:52.135Z,29.57
2022-10-11T09:57:23.657Z,30.00
2022-10-11T10:00:02.379Z,29.95
2022-10-11T10:03:26.377Z,30.41
2022-10-11T10:06:06.825Z,30.78
2022-10-11T10:08:34.803Z,31.52
2022-10-11T10:11:07.979Z,31.56
2022-10-11T10:13:40.622Z,31.77
2022-10-11T10:16:11.710Z,31.84
2022-10-11T10:18:50.790Z,32.48
2022-10-11T10:21:29.655Z,33.90
2022-10-11T10:23:59.923Z,33.58
2022-10-11T10:26:27.320Z,33.29
2022-10-11T10:29:09.535Z,33.71
2022-10-11T10:32:12.965Z,34.30
2022-10-11T10:34:41.465Z,34.58
2022-10-11T10:37:25.237Z,35.21
2022-10-11T10:39:56.338Z,35.10
2022-10-11T10:42:22.999Z,35.05
2022-10-11T10:44:54.954Z,34.72
2022-10-11T10:47:46.167Z,34.26
2022-10-11T10:50:21.565Z,34.70
2022-10-11T10:53:12.024Z,36.04
2022-10-11T10:55:44.309Z,35.08
2022-10-11T10:58:29.486Z,35.65
2022-10-11T11:01:02.163Z,36.77
2022-10-11T11:03:32.185Z,35.86
2022-10-11T11:06:06.384Z,36.38
2022-10-11T11:08:53.195Z,35.84
2022-10-11T11:11:37.380Z,36.58
2022-10-11T11:14:18.653Z,36.39
2022-10-11T11:16:56.214Z,36.91
2022-10-11T11:19:29.978Z,36.39
2022-10-11T11:22:14.885Z,37.42
2022-10-11T11:25:05.722Z,36.41
2022-10-11T11:28:10.058Z,36.92
2022-10-11T11:30:41.301Z,37.96
2022-10-11T11:33:46.359Z,36.55
2022-10-11T11:36:23.407Z,37.07
2022-10-11T11:38:56.750Z,36.34
2022-10-11T11:41:27.506Z,37.10
2022-10-11T11:44:22.764Z,35.58
2022-10-11T11:47:04.355Z,36.79
2022-10-11T11:49:36.036Z,37.13
2022-10-11T11:52:05.491Z,38.14
2022-10-11T11:54:47.340Z,37.38
2022-10-11T11:57:34.333Z,37.76
2022-10-11T12:00:13.369Z,36.91
2022-10-11T12:02:50.282Z,36.21
2022-10-11T12:05:22.045Z,37.01
2022-10-11T12:07:56.277Z,35.79
2022-10-11T12:10:27.936Z,36.08
2022-10-11T12:13:06.678Z,36.39
2022-10-11T12:15:34.107Z,36.69
2022-10-11T12:18:04.384Z,36.42
2022-10-11T12:20:41.460Z,36.97
2022-10-11T12:23:29.922Z,37.02
2022-10-11T12:26:16.109Z,36.19
2022-10-11T12:28:43.022Z,36.73
2022-10-11T12:31:20.702Z,36.99
2022-10-11T12:33:47.161Z,36.33
2022-10-11T12:36:32.291Z,37.29
2022-10-11T12:39:18.214Z,36.71
2022-10-11T12:41:47.516Z,38.31
2022-10-11T12:44:23.996Z,37.90
2022-10-11T12:46:50.462Z,37.72
2022-10-11T12:49:36.275Z,37.55
2022-10-11T12:52:22.450Z,37.90
2022-10-11T12:55:22.785Z,38.00
2022-10-11T12:58:26.883Z,37.87
2022-10-11T13:00:56.950Z,37.44
2022-10-11T13:03:34.585Z,38.49
2022-10-11T13:06:24.989Z,38.26
2022-10-11T13:09:04.441Z,37.27
2022-10-11T13:11:35.222Z,38.44
2022-10-11T13:14:17.489Z,37.61
2022-10-11T13:16:49.887Z,37.60
2022-10-11T13:19:17.269Z,38.13
2022-10-11T13:21:51.454Z,37.21
2022-10-11T13:24:19.330Z,38.51
2022-10-11T13:26:49.059Z,38.81
2022-10-11T13:29:18.716Z,38.07
2022-10-11T13:31:48.069Z,38.69
2022-10-11T13:34:17.671Z,38.09
2022-10-11T13:36:46.430Z,38.22
2022-10-11T13:39:31.602Z,38.87
2022-10-11T13:42:00.093Z,38.19
2022-10-11T13:44:27.197Z,38.84
2022-10-11T13:46:54.527Z,38.54
2022-10-11T13:49:27.402Z,38.00
2022-10-11T13:52:00.238Z,38.79
2022-10-11T13:54:54.514Z,38.70
2022-10-11T13:57:29.277Z,38.34
2022-10-11T13:59:56.069Z,39.13
2022-10-11T14:02:24.746Z,38.94
2022-10-11T14:04:51.379Z,38.46
2022-10-11T14:07:33.445Z,38.76
2022-10-11T14:10:00.133Z,38.76
2022-10-11T14:12:31.998Z,38.75
2022-10-11T14:15:01.468Z,39.14
2022-10-11T14:17:44.259Z,38.44
2022-10-11T14:20:11.690Z,38.61
2022-10-11T14:22:38.752Z,38.24
2022-10-11T14:25:05.817Z,38.65
2022-10-11T14:27:32.739Z,40.19
2022-10-11T14:30:24.089Z,39.91
2022-10-11T14:32:49.022Z,40.04
2022-10-11T14:35:18.870Z,38.94
2022-10-11T14:37:45.924Z,39.07
2022-10-11T14:40:16.007Z,38.89
2022-10-11T14:42:43.346Z,40.26
2022-10-11T14:45:10.342Z,39.28
2022-10-11T14:47:42.621Z,39.68
2022-10-11T14:50:34.878Z,39.89
2022-10-11T14:53:02.966Z,39.25
2022-10-11T14:55:31.050Z,39.34
2022-10-11T14:57:58.058Z,39.54
2022-10-11T15:00:28.002Z,38.97
2022-10-11T15:02:55.890Z,38.76
2022-10-11T15:05:27.748Z,39.34
2022-10-11T15:07:57.795Z,38.91
2022-10-11T15:10:26.463Z,38.80
2022-10-11T15:12:55.013Z,40.25
2022-10-11T15:15:25.011Z,38.76
2022-10-11T15:17:55.113Z,38.88
2022-10-11T15:20:24.148Z,39.88
2022-10-11T15:22:51.846Z,39.04
2022-10-11T15:25:18.781Z,38.92
2022-10-11T15:27:45.756Z,39.35
2022-10-11T15:30:17.270Z,39.03
2022-10-11T15:32:45.542Z,39.72
2022-10-11T15:35:12.446Z,39.65
2022-10-11T15:37:39.208Z,39.54
2022-10-11T15:40:16.453Z,40.46
2022-10-11T15:42:43.642Z,39.52
2022-10-11T15:45:10.595Z,39.70
2022-10-11T15:47:37.623Z,39.94
2022-10-11T15:50:14.014Z,39.08
2022-10-11T15:52:40.675Z,39.80
2022-10-11T15:55:07.568Z,39.66
2022-10-11T15:57:34.130Z,39.20
2022-10-11T16:00:00.649Z,39.35
2022-10-11T16:02:27.783Z,39.36
2022-10-11T16:04:54.314Z,40.12
2022-10-11T16:07:20.879Z,40.14
2022-10-11T16:09:47.405Z,39.44
2022-10-11T16:12:14.008Z,40.20
2022-10-11T16:14:44.903Z,40.31
2022-10-11T16:17:13.674Z,39.64
2022-10-11T16:19:40.258Z,39.90
2022-10-11T16:22:06.797Z,39.76
2022-10-11T16:24:33.453Z,40.31
2022-10-11T16:27:00.975Z,39.92
2022-10-11T16:29:27.653Z,40.33
2022-10-11T16:31:54.437Z,40.51
2022-10-11T16:34:20.970Z,40.38
2022-10-11T16:36:47.867Z,40.70
2022-10-11T16:39:17.233Z,40.51
2022-10-11T16:41:45.188Z,41.28
2022-10-11T16:44:13.870Z,41.43
2022-10-11T16:46:41.120Z,41.10
2022-10-11T16:49:07.947Z,41.36
2022-10-11T16:51:34.528Z,42.13
2022-10-11T16:54:01.871Z,41.65
2022-10-11T16:56:28.579Z,41.50
2022-10-11T16:58:56.102Z,42.83
2022-10-11T17:01:23.565Z,42.42
2022-10-11T17:03:51.320Z,42.76
2022-10-11T17:06:18.903Z,42.49
2022-10-11T17:08:45.521Z,42.71
2022-10-11T17:11:12.157Z,43.16
2022-10-11T17:13:38.786Z,43.03
2022-10-11T17:16:05.988Z,43.06
2022-10-11T17:18:32.744Z,43.17
2022-10-11T17:21:04.818Z,43.46
2022-10-11T17:23:32.939Z,43.20
2022-10-11T17:26:05.256Z,43.43
2022-10-11T17:28:36.280Z,43.58
2022-10-11T17:31:04.753Z,43.87
2022-10-11T17:33:32.422Z,43.42
2022-10-11T17:36:00.686Z,43.42
2022-10-11T17:38:27.603Z,43.39
2022-10-11T17:41:02.338Z,43.61
2022-10-11T17:43:29.533Z,43.44
2022-10-11T17:45:57.275Z,43.73
2022-10-11T17:48:24.470Z,44.13
2022-10-11T17:50:51.046Z,44.33
2022-10-11T17:53:18.145Z,44.13
2022-10-11T17:55:45.379Z,43.90
2022-10-11T17:58:12.786Z,44.05
2022-10-11T18:00:40.098Z,43.99
2022-10-11T18:03:06.867Z,43.96
2022-10-11T18:05:33.786Z,44.19
2022-10-11T18:08:00.574Z,43.91
2022-10-11T18:10:27.617Z,44.29
2022-10-11T18:12:54.823Z,44.40
2022-10-11T18:15:21.668Z,44.67
2022-10-11T18:17:48.242Z,44.56
2022-10-11T18:20:14.827Z,44.41
2022-10-11T18:22:41.358Z,44.27
2022-10-11T18:25:08.303Z,44.89
2022-10-11T18:27:34.898Z,45.41
2022-10-11T18:30:02.703Z,46.15
2022-10-11T18:32:29.232Z,46.40
2022-10-11T18:34:57.828Z,46.64
2022-10-11T18:37:24.589Z,45.54
2022-10-11T18:39:51.304Z,46.02
2022-10-11T18:42:17.899Z,46.10
2022-10-11T18:44:44.734Z,45.19
2022-10-11T18:47:11.300Z,45.02
2022-10-11T18:49:38.427Z,45.27
2022-10-11T18:52:05.526Z,44.84
2022-10-11T18:54:32.502Z,45.05
2022-10-11T18:56:59.043Z,45.19
2022-10-11T18:59:25.644Z,45.30
2022-10-11T19:01:52.572Z,45.15
2022-10-11T19:04:19.922Z,45.26
2022-10-11T19:06:48.904Z,45.30
2022-10-11T19:09:24.271Z,45.54
2022-10-11T19:11:56.341Z,45.88
2022-10-11T19:14:26.050Z,45.61
2022-10-11T19:16:53.689Z,46.07
2022-10-11T19:19:23.895Z,46.81
2022-10-11T19:21:51.382Z,46.74
2022-10-11T19:24:21.993Z,46.83
2022-10-11T19:26:49.929Z,46.88
2022-10-11T19:29:19.723Z,46.79
2022-10-11T19:31:49.122Z,46.48
2022-10-11T19:34:16.206Z,46.11
2022-10-11T19:36:43.125Z,46.46
2022-10-11T19:39:13.214Z,46.16
2022-10-11T19:41:40.233Z,46.22
2022-10-11T19:44:07.122Z,46.90
2022-10-11T19:49:24.631Z,46.83
2022-10-11T19:51:55.332Z,46.38
2022-10-11T19:54:22.733Z,46.87
2022-10-11T19:56:50.497Z,46.68
2022-10-11T19:59:17.294Z,46.26
2022-10-11T20:01:49.319Z,46.23
2022-10-11T20:04:39.428Z,46.18
2022-10-11T20:07:03.174Z,46.25
2022-10-11T20:09:30.864Z,45.87
2022-10-11T20:11:58.372Z,46.28
2022-10-11T20:14:25.567Z,45.82
2022-10-11T20:16:52.983Z,46.18
2022-10-11T20:19:19.994Z,45.96
2022-10-11T20:21:47.415Z,46.17
2022-10-11T20:24:15.370Z,45.95
2022-10-11T20:26:41.989Z,45.91
2022-10-11T20:29:08.520Z,45.73
2022-10-11T20:31:41.616Z,45.56
2022-10-11T20:34:11.147Z,45.76
2022-10-11T20:36:37.934Z,45.89
2022-10-11T20:39:06.569Z,45.50
2022-10-11T20:41:39.739Z,45.51
2022-10-11T20:44:07.685Z,45.81
2022-10-11T20:46:37.091Z,45.65
2022-10-11T20:49:10.504Z,45.53
2022-10-11T20:51:38.885Z,45.23
2022-10-11T20:54:05.734Z,45.51
2022-10-11T20:56:34.114Z,45.41
2022-10-11T20:59:01.336Z,45.54
2022-10-11T21:01:31.108Z,45.36
2022-10-11T21:04:00.200Z,45.64
2022-10-11T21:06:27.559Z,45.10
2022-10-11T21:08:55.654Z,45.01
2022-10-11T21:11:25.778Z,45.03
2022-10-11T21:13:56.607Z,44.89
2022-10-11T21:16:23.816Z,44.99
2022-10-11T21:18:55.271Z,45.19
2022-10-11T21:21:25.877Z,45.27
2022-10-11T21:23:56.843Z,45.26
2022-10-11T21:26:23.598Z,45.36
2022-10-11T21:28:51.075Z,45.37
2022-10-11T21:31:19.710Z,45.42
2022-10-11T21:33:46.258Z,45.35
2022-10-11T21:36:16.102Z,45.10
2022-10-11T21:38:43.369Z,45.45
2022-10-11T21:41:15.841Z,45.33
2022-10-11T21:43:42.432Z,45.45
2022-10-11T21:46:19.620Z,45.18
2022-10-11T21:48:47.206Z,45.63
2022-10-11T21:51:17.069Z,45.77
2022-10-11T21:53:43.613Z,45.42
2022-10-11T21:56:10.135Z,45.25
2022-10-11T21:58:36.869Z,45.74
2022-10-11T22:01:03.583Z,45.39
2022-10-11T22:03:30.324Z,45.44
2022-10-11T22:05:57.019Z,45.21
2022-10-11T22:08:23.546Z,45.50
2022-10-11T22:10:57.045Z,45.38
2022-10-11T22:13:25.337Z,45.09
2022-10-11T22:15:52.032Z,44.97
2022-10-11T22:18:19.009Z,45.12
2022-10-11T22:20:45.966Z,45.54
2022-10-11T22:23:12.551Z,45.31
2022-10-11T22:25:39.769Z,45.79
2022-10-11T22:28:07.034Z,45.50
2022-10-11T22:30:33.927Z,45.44
2022-10-11T22:33:00.572Z,45.17
2022-10-11T22:35:27.095Z,45.53
2022-10-11T22:37:53.983Z,45.30
2022-10-11T22:40:20.923Z,45.13
2022-10-11T22:42:47.998Z,45.31
2022-10-11T22:45:15.015Z,45.59
2022-10-11T22:47:41.566Z,44.97
2022-10-11T22:50:08.871Z,45.17
2022-10-11T22:52:35.379Z,45.26
2022-10-11T22:55:02.221Z,45.39
2022-10-11T22:57:29.529Z,45.00
2022-10-11T22:59:56.169Z,45.09
2022-10-11T23:02:23.151Z,44.99
2022-10-11T23:04:49.741Z,44.84
2022-10-11T23:07:16.260Z,45.17
2022-10-11T23:09:42.787Z,44.90
2022-10-11T23:12:09.339Z,44.81
2022-10-11T23:14:35.886Z,44.91
2022-10-11T23:17:02.691Z,44.94
2022-10-11T23:19:29.269Z,44.72
2022-10-11T23:21:55.796Z,45.24
2022-10-11T23:24:22.333Z,44.65
2022-10-11T23:26:49.043Z,44.48
2022-10-11T23:29:15.604Z,44.68
2022-10-11T23:31:42.146Z,44.82
2022-10-11T23:34:08.668Z,44.55
2022-10-11T23:36:35.202Z,44.40
2022-10-11T23:39:01.754Z,44.29
2022-10-11T23:41:29.321Z,44.36
2022-10-11T23:43:57.029Z,44.38
2022-10-11T23:46:23.600Z,44.44
2022-10-11T23:48:50.397Z,44.43
2022-10-11T23:51:16.941Z,44.09
2022-10-11T23:53:43.469Z,44.13
2022-10-11T23:56:11.093Z,44.19
2022-10-11T23:58:38.091Z,44.45
